sensor_id;sensor_type;location;lat;lon;timestamp;P1;durP1;ratioP1;P2;durP2;ratioP2
25972;SDS011;13765;51.166;4.466;2022-12-18T00:01:16;36.35;;;17.77;;
25972;SDS011;13765;51.166;4.466;2022-12-18T00:04:07;26.73;;;12.25;;
25972;SDS011;13765;51.166;4.466;2022-12-18T00:06:50;22.27;;;12.07;;
25972;SDS011;13765;51.166;4.466;2022-12-18T00:09:16;39.67;;;13.60;;
25972;SDS011;13765;51.166;4.466;2022-12-18T00:11:42;39.35;;;14.43;;
25972;SDS011;13765;51.166;4.466;2022-12-18T00:14:11;37.10;;;14.93;;
25972;SDS011;13765;51.166;4.466;2022-12-18T00:16:43;43.78;;;16.27;;
25972;SDS011;13765;51.166;4.466;2022-12-18T00:19:12;31.40;;;12.30;;
25972;SDS011;13765;51.166;4.466;2022-12-18T00:21:41;44.70;;;13.43;;
25972;SDS011;13765;51.166;4.466;2022-12-18T00:24:09;40.15;;;17.38;;
25972;SDS011;13765;51.166;4.466;2022-12-18T00:26:38;38.05;;;16.77;;
25972;SDS011;13765;51.166;4.466;2022-12-18T00:29:09;25.90;;;11.73;;
25972;SDS011;13765;51.166;4.466;2022-12-18T00:31:38;45.83;;;13.93;;
25972;SDS011;13765;51.166;4.466;2022-12-18T00:34:08;36.53;;;17.35;;
25972;SDS011;13765;51.166;4.466;2022-12-18T00:39:07;35.30;;;13.45;;
25972;SDS011;13765;51.166;4.466;2022-12-18T00:41:33;28.45;;;17.02;;
25972;SDS011;13765;51.166;4.466;2022-12-18T00:44:19;35.35;;;15.82;;
25972;SDS011;13765;51.166;4.466;2022-12-18T00:46:48;39.78;;;18.50;;
25972;SDS011;13765;51.166;4.466;2022-12-18T00:49:16;46.53;;;15.95;;
25972;SDS011;13765;51.166;4.466;2022-12-18T00:51:43;56.05;;;16.42;;
25972;SDS011;13765;51.166;4.466;2022-12-18T00:54:14;35.38;;;15.40;;
25972;SDS011;13765;51.166;4.466;2022-12-18T00:56:41;36.25;;;16.73;;
25972;SDS011;13765;51.166;4.466;2022-12-18T00:59:06;34.60;;;14.13;;
25972;SDS011;13765;51.166;4.466;2022-12-18T01:01:33;30.40;;;11.80;;
25972;SDS011;13765;51.166;4.466;2022-12-18T01:04:00;43.00;;;13.77;;
25972;SDS011;13765;51.166;4.466;2022-12-18T01:06:29;51.08;;;16.88;;
25972;SDS011;13765;51.166;4.466;2022-12-18T01:08:58;25.25;;;13.95;;
25972;SDS011;13765;51.166;4.466;2022-12-18T01:11:24;36.60;;;14.75;;
25972;SDS011;13765;51.166;4.466;2022-12-18T01:13:51;43.33;;;16.60;;
25972;SDS011;13765;51.166;4.466;2022-12-18T01:16:19;25.10;;;13.00;;
25972;SDS011;13765;51.166;4.466;2022-12-18T01:18:50;42.17;;;12.93;;
25972;SDS011;13765;51.166;4.466;2022-12-18T01:21:20;33.85;;;11.95;;
25972;SDS011;13765;51.166;4.466;2022-12-18T01:23:50;30.10;;;15.73;;
25972;SDS011;13765;51.166;4.466;2022-12-18T01:26:20;49.33;;;14.25;;
25972;SDS011;13765;51.166;4.466;2022-12-18T01:28:49;29.42;;;11.95;;
25972;SDS011;13765;51.166;4.466;2022-12-18T01:31:18;40.45;;;14.27;;
25972;SDS011;13765;51.166;4.466;2022-12-18T01:33:48;38.60;;;13.15;;
25972;SDS011;13765;51.166;4.466;2022-12-18T01:36:21;32.72;;;12.55;;
25972;SDS011;13765;51.166;4.466;2022-12-18T01:39:05;47.78;;;16.88;;
25972;SDS011;13765;51.166;4.466;2022-12-18T01:41:36;34.22;;;14.30;;
25972;SDS011;13765;51.166;4.466;2022-12-18T01:47:18;40.67;;;11.73;;
25972;SDS011;13765;51.166;4.466;2022-12-18T01:49:48;31.77;;;11.73;;
25972;SDS011;13765;51.166;4.466;2022-12-18T01:52:18;35.97;;;15.57;;
25972;SDS011;13765;51.166;4.466;2022-12-18T01:54:45;38.65;;;10.80;;
25972;SDS011;13765;51.166;4.466;2022-12-18T01:57:14;32.30;;;14.80;;
25972;SDS011;13765;51.166;4.466;2022-12-18T01:59:40;27.38;;;10.82;;
25972;SDS011;13765;51.166;4.466;2022-12-18T02:02:08;41.65;;;14.85;;
25972;SDS011;13765;51.166;4.466;2022-12-18T02:04:34;27.25;;;13.05;;
25972;SDS011;13765;51.166;4.466;2022-12-18T02:07:07;37.28;;;13.95;;
25972;SDS011;13765;51.166;4.466;2022-12-18T02:09:37;25.90;;;12.45;;
25972;SDS011;13765;51.166;4.466;2022-12-18T02:12:20;42.60;;;13.23;;
25972;SDS011;13765;51.166;4.466;2022-12-18T02:14:59;32.78;;;15.90;;
25972;SDS011;13765;51.166;4.466;2022-12-18T02:17:43;37.65;;;13.68;;
25972;SDS011;13765;51.166;4.466;2022-12-18T02:20:32;33.83;;;12.35;;
25972;SDS011;13765;51.166;4.466;2022-12-18T02:28:28;18.73;;;10.27;;
25972;SDS011;13765;51.166;4.466;2022-12-18T02:31:04;29.27;;;12.07;;
25972;SDS011;13765;51.166;4.466;2022-12-18T02:33:34;23.20;;;10.80;;
25972;SDS011;13765;51.166;4.466;2022-12-18T02:36:02;30.70;;;10.35;;
25972;SDS011;13765;51.166;4.466;2022-12-18T02:38:29;27.92;;;11.93;;
25972;SDS011;13765;51.166;4.466;2022-12-18T02:40:56;31.02;;;13.88;;
25972;SDS011;13765;51.166;4.466;2022-12-18T02:43:25;23.33;;;10.43;;
25972;SDS011;13765;51.166;4.466;2022-12-18T02:45:55;26.80;;;9.80;;
25972;SDS011;13765;51.166;4.466;2022-12-18T02:48:30;35.60;;;13.03;;
25972;SDS011;13765;51.166;4.466;2022-12-18T02:53:43;27.77;;;10.77;;
25972;SDS011;13765;51.166;4.466;2022-12-18T02:59:07;23.88;;;7.20;;
25972;SDS011;13765;51.166;4.466;2022-12-18T03:06:49;19.42;;;9.32;;
25972;SDS011;13765;51.166;4.466;2022-12-18T03:09:36;26.05;;;12.07;;
25972;SDS011;13765;51.166;4.466;2022-12-18T03:12:15;24.10;;;9.85;;
25972;SDS011;13765;51.166;4.466;2022-12-18T03:17:33;17.55;;;8.63;;
25972;SDS011;13765;51.166;4.466;2022-12-18T03:20:05;28.77;;;10.73;;
25972;SDS011;13765;51.166;4.466;2022-12-18T03:22:33;26.63;;;9.07;;
25972;SDS011;13765;51.166;4.466;2022-12-18T03:25:03;18.83;;;7.28;;
25972;SDS011;13765;51.166;4.466;2022-12-18T03:27:33;17.50;;;10.00;;
25972;SDS011;13765;51.166;4.466;2022-12-18T03:30:03;24.50;;;8.80;;
25972;SDS011;13765;51.166;4.466;2022-12-18T03:33:18;38.22;;;15.27;;
25972;SDS011;13765;51.166;4.466;2022-12-18T03:35:41;23.35;;;9.35;;
25972;SDS011;13765;51.166;4.466;2022-12-18T03:38:08;25.83;;;10.45;;
25972;SDS011;13765;51.166;4.466;2022-12-18T03:54:27;18.23;;;9.57;;
25972;SDS011;13765;51.166;4.466;2022-12-18T03:56:57;29.88;;;11.45;;
25972;SDS011;13765;51.166;4.466;2022-12-18T03:59:27;27.95;;;10.82;;
25972;SDS011;13765;51.166;4.466;2022-12-18T04:01:55;35.85;;;11.73;;
25972;SDS011;13765;51.166;4.466;2022-12-18T04:04:23;26.50;;;10.18;;
25972;SDS011;13765;51.166;4.466;2022-12-18T04:06:51;21.27;;;9.68;;
25972;SDS011;13765;51.166;4.466;2022-12-18T04:09:20;30.77;;;7.82;;
25972;SDS011;13765;51.166;4.466;2022-12-18T04:11:46;21.77;;;10.27;;
25972;SDS011;13765;51.166;4.466;2022-12-18T04:14:17;17.48;;;8.27;;
25972;SDS011;13765;51.166;4.466;2022-12-18T04:16:46;26.13;;;8.18;;
25972;SDS011;13765;51.166;4.466;2022-12-18T04:19:12;21.35;;;11.10;;
25972;SDS011;13765;51.166;4.466;2022-12-18T04:21:40;22.35;;;7.40;;
25972;SDS011;13765;51.166;4.466;2022-12-18T04:24:06;21.17;;;10.52;;
25972;SDS011;13765;51.166;4.466;2022-12-18T04:26:35;23.08;;;9.88;;
25972;SDS011;13765;51.166;4.466;2022-12-18T04:29:03;26.15;;;9.82;;
25972;SDS011;13765;51.166;4.466;2022-12-18T04:31:29;26.75;;;9.60;;
25972;SDS011;13765;51.166;4.466;2022-12-18T04:33:57;24.83;;;10.57;;
25972;SDS011;13765;51.166;4.466;2022-12-18T04:36:28;24.60;;;10.07;;
25972;SDS011;13765;51.166;4.466;2022-12-18T04:38:55;24.10;;;10.60;;
25972;SDS011;13765;51.166;4.466;2022-12-18T04:41:23;40.67;;;12.57;;
25972;SDS011;13765;51.166;4.466;2022-12-18T04:43:52;14.25;;;7.00;;
25972;SDS011;13765;51.166;4.466;2022-12-18T04:46:18;15.65;;;6.53;;
25972;SDS011;13765;51.166;4.466;2022-12-18T04:48:45;17.33;;;7.38;;
25972;SDS011;13765;51.166;4.466;2022-12-18T04:51:14;12.98;;;6.63;;
25972;SDS011;13765;51.166;4.466;2022-12-18T04:53:40;27.73;;;8.38;;
25972;SDS011;13765;51.166;4.466;2022-12-18T04:56:12;19.83;;;9.82;;
25972;SDS011;13765;51.166;4.466;2022-12-18T04:58:45;21.52;;;8.10;;
25972;SDS011;13765;51.166;4.466;2022-12-18T05:01:12;23.90;;;10.63;;
25972;SDS011;13765;51.166;4.466;2022-12-18T05:03:44;20.42;;;9.98;;
25972;SDS011;13765;51.166;4.466;2022-12-18T05:06:10;14.40;;;7.15;;
25972;SDS011;13765;51.166;4.466;2022-12-18T05:08:41;20.10;;;9.80;;
25972;SDS011;13765;51.166;4.466;2022-12-18T05:11:10;25.30;;;10.70;;
25972;SDS011;13765;51.166;4.466;2022-12-18T05:13:38;12.32;;;8.15;;
25972;SDS011;13765;51.166;4.466;2022-12-18T05:16:04;27.05;;;9.95;;
25972;SDS011;13765;51.166;4.466;2022-12-18T05:18:31;19.13;;;7.78;;
25972;SDS011;13765;51.166;4.466;2022-12-18T05:21:00;24.40;;;9.25;;
25972;SDS011;13765;51.166;4.466;2022-12-18T05:23:26;29.73;;;9.23;;
25972;SDS011;13765;51.166;4.466;2022-12-18T05:25:56;21.92;;;9.55;;
25972;SDS011;13765;51.166;4.466;2022-12-18T05:28:25;26.92;;;10.75;;
25972;SDS011;13765;51.166;4.466;2022-12-18T05:30:55;20.75;;;8.43;;
25972;SDS011;13765;51.166;4.466;2022-12-18T05:33:23;13.63;;;5.50;;
25972;SDS011;13765;51.166;4.466;2022-12-18T05:36:00;17.35;;;6.10;;
25972;SDS011;13765;51.166;4.466;2022-12-18T05:38:27;18.33;;;9.20;;
25972;SDS011;13765;51.166;4.466;2022-12-18T05:40:54;15.15;;;7.53;;
25972;SDS011;13765;51.166;4.466;2022-12-18T05:43:24;20.52;;;7.72;;
25972;SDS011;13765;51.166;4.466;2022-12-18T05:45:53;20.05;;;7.85;;
25972;SDS011;13765;51.166;4.466;2022-12-18T05:48:20;11.20;;;7.93;;
25972;SDS011;13765;51.166;4.466;2022-12-18T05:50:47;18.48;;;6.70;;
25972;SDS011;13765;51.166;4.466;2022-12-18T05:53:15;14.20;;;6.10;;
25972;SDS011;13765;51.166;4.466;2022-12-18T05:55:42;13.77;;;6.97;;
25972;SDS011;13765;51.166;4.466;2022-12-18T05:58:08;15.13;;;7.00;;
25972;SDS011;13765;51.166;4.466;2022-12-18T06:00:39;7.20;;;5.57;;
25972;SDS011;13765;51.166;4.466;2022-12-18T06:03:10;11.45;;;5.53;;
25972;SDS011;13765;51.166;4.466;2022-12-18T06:05:40;15.68;;;8.85;;
25972;SDS011;13765;51.166;4.466;2022-12-18T06:08:10;20.42;;;7.57;;
25972;SDS011;13765;51.166;4.466;2022-12-18T06:10:37;12.95;;;5.90;;
25972;SDS011;13765;51.166;4.466;2022-12-18T06:13:11;19.85;;;6.82;;
25972;SDS011;13765;51.166;4.466;2022-12-18T06:15:40;15.57;;;6.68;;
25972;SDS011;13765;51.166;4.466;2022-12-18T06:18:25;23.88;;;6.75;;
25972;SDS011;13765;51.166;4.466;2022-12-18T06:20:57;13.35;;;6.07;;
25972;SDS011;13765;51.166;4.466;2022-12-18T06:23:23;12.63;;;6.22;;
25972;SDS011;13765;51.166;4.466;2022-12-18T06:25:49;20.08;;;11.07;;
25972;SDS011;13765;51.166;4.466;2022-12-18T06:28:16;20.50;;;8.75;;
25972;SDS011;13765;51.166;4.466;2022-12-18T06:30:45;22.08;;;7.75;;
25972;SDS011;13765;51.166;4.466;2022-12-18T06:33:12;24.20;;;6.78;;
25972;SDS011;13765;51.166;4.466;2022-12-18T06:35:40;17.42;;;7.68;;
25972;SDS011;13765;51.166;4.466;2022-12-18T06:38:08;25.50;;;7.95;;
25972;SDS011;13765;51.166;4.466;2022-12-18T06:40:37;19.13;;;8.18;;
25972;SDS011;13765;51.166;4.466;2022-12-18T06:43:06;15.57;;;5.93;;
25972;SDS011;13765;51.166;4.466;2022-12-18T06:45:32;30.02;;;9.63;;
25972;SDS011;13765;51.166;4.466;2022-12-18T06:47:59;17.65;;;7.38;;
25972;SDS011;13765;51.166;4.466;2022-12-18T06:50:25;21.85;;;7.10;;
25972;SDS011;13765;51.166;4.466;2022-12-18T06:52:53;16.33;;;5.95;;
25972;SDS011;13765;51.166;4.466;2022-12-18T06:55:22;18.25;;;7.13;;
25972;SDS011;13765;51.166;4.466;2022-12-18T06:57:52;16.02;;;8.27;;
25972;SDS011;13765;51.166;4.466;2022-12-18T07:00:18;13.10;;;6.35;;
25972;SDS011;13765;51.166;4.466;2022-12-18T07:02:44;16.63;;;6.82;;
25972;SDS011;13765;51.166;4.466;2022-12-18T07:05:10;15.25;;;7.30;;
25972;SDS011;13765;51.166;4.466;2022-12-18T07:07:41;18.60;;;6.00;;
25972;SDS011;13765;51.166;4.466;2022-12-18T07:10:07;14.20;;;6.47;;
25972;SDS011;13765;51.166;4.466;2022-12-18T07:12:38;14.05;;;8.52;;
25972;SDS011;13765;51.166;4.466;2022-12-18T07:15:06;23.38;;;8.48;;
25972;SDS011;13765;51.166;4.466;2022-12-18T07:17:35;19.55;;;7.72;;
25972;SDS011;13765;51.166;4.466;2022-12-18T07:20:01;14.85;;;7.32;;
25972;SDS011;13765;51.166;4.466;2022-12-18T07:22:29;14.25;;;6.20;;
25972;SDS011;13765;51.166;4.466;2022-12-18T07:24:57;20.77;;;6.30;;
25972;SDS011;13765;51.166;4.466;2022-12-18T07:27:23;14.73;;;6.40;;
25972;SDS011;13765;51.166;4.466;2022-12-18T07:29:49;19.15;;;7.57;;
25972;SDS011;13765;51.166;4.466;2022-12-18T07:32:16;8.10;;;5.72;;
25972;SDS011;13765;51.166;4.466;2022-12-18T07:34:42;18.38;;;7.57;;
25972;SDS011;13765;51.166;4.466;2022-12-18T07:37:07;19.80;;;7.70;;
25972;SDS011;13765;51.166;4.466;2022-12-18T07:39:33;12.55;;;5.43;;
25972;SDS011;13765;51.166;4.466;2022-12-18T07:41:59;14.30;;;7.57;;
25972;SDS011;13765;51.166;4.466;2022-12-18T07:44:44;13.32;;;6.38;;
25972;SDS011;13765;51.166;4.466;2022-12-18T07:47:10;21.58;;;7.05;;
25972;SDS011;13765;51.166;4.466;2022-12-18T07:49:41;14.30;;;7.30;;
25972;SDS011;13765;51.166;4.466;2022-12-18T07:52:27;12.45;;;5.68;;
25972;SDS011;13765;51.166;4.466;2022-12-18T07:54:53;16.80;;;7.45;;
25972;SDS011;13765;51.166;4.466;2022-12-18T07:57:20;14.82;;;6.57;;
25972;SDS011;13765;51.166;4.466;2022-12-18T07:59:46;13.40;;;6.65;;
25972;SDS011;13765;51.166;4.466;2022-12-18T08:02:11;19.33;;;7.50;;
25972;SDS011;13765;51.166;4.466;2022-12-18T08:04:38;14.15;;;7.25;;
25972;SDS011;13765;51.166;4.466;2022-12-18T08:07:05;14.13;;;7.60;;
25972;SDS011;13765;51.166;4.466;2022-12-18T08:09:34;10.63;;;6.10;;
25972;SDS011;13765;51.166;4.466;2022-12-18T08:12:00;17.80;;;7.28;;
25972;SDS011;13765;51.166;4.466;2022-12-18T08:14:26;13.15;;;6.85;;
25972;SDS011;13765;51.166;4.466;2022-12-18T08:16:54;12.88;;;5.55;;
25972;SDS011;13765;51.166;4.466;2022-12-18T08:19:23;19.35;;;6.20;;
25972;SDS011;13765;51.166;4.466;2022-12-18T08:21:48;17.45;;;8.07;;
25972;SDS011;13765;51.166;4.466;2022-12-18T08:24:14;12.38;;;4.82;;
25972;SDS011;13765;51.166;4.466;2022-12-18T08:26:40;12.20;;;5.53;;
25972;SDS011;13765;51.166;4.466;2022-12-18T08:29:06;24.85;;;5.85;;
25972;SDS011;13765;51.166;4.466;2022-12-18T08:31:34;20.20;;;5.75;;
25972;SDS011;13765;51.166;4.466;2022-12-18T08:34:00;13.52;;;7.60;;
25972;SDS011;13765;51.166;4.466;2022-12-18T08:36:26;14.55;;;6.50;;
25972;SDS011;13765;51.166;4.466;2022-12-18T08:38:53;18.05;;;7.72;;
25972;SDS011;13765;51.166;4.466;2022-12-18T08:41:19;15.52;;;7.38;;
25972;SDS011;13765;51.166;4.466;2022-12-18T08:43:48;28.05;;;7.15;;
25972;SDS011;13765;51.166;4.466;2022-12-18T08:46:37;16.23;;;7.03;;
25972;SDS011;13765;51.166;4.466;2022-12-18T08:49:07;25.50;;;7.95;;
25972;SDS011;13765;51.166;4.466;2022-12-18T08:51:37;16.55;;;7.32;;
25972;SDS011;13765;51.166;4.466;2022-12-18T08:54:04;16.30;;;6.85;;
25972;SDS011;13765;51.166;4.466;2022-12-18T08:56:31;14.40;;;6.28;;
25972;SDS011;13765;51.166;4.466;2022-12-18T08:58:59;13.75;;;6.05;;
25972;SDS011;13765;51.166;4.466;2022-12-18T09:01:25;16.83;;;5.60;;
25972;SDS011;13765;51.166;4.466;2022-12-18T09:03:53;10.40;;;5.35;;
25972;SDS011;13765;51.166;4.466;2022-12-18T09:06:22;19.55;;;7.28;;
25972;SDS011;13765;51.166;4.466;2022-12-18T09:08:49;24.08;;;7.07;;
25972;SDS011;13765;51.166;4.466;2022-12-18T09:11:19;13.43;;;5.30;;
25972;SDS011;13765;51.166;4.466;2022-12-18T09:13:47;9.77;;;5.97;;
25972;SDS011;13765;51.166;4.466;2022-12-18T09:16:19;20.45;;;5.60;;
25972;SDS011;13765;51.166;4.466;2022-12-18T09:18:46;14.55;;;6.28;;
25972;SDS011;13765;51.166;4.466;2022-12-18T09:21:14;13.07;;;6.10;;
25972;SDS011;13765;51.166;4.466;2022-12-18T09:23:41;10.13;;;5.65;;
25972;SDS011;13765;51.166;4.466;2022-12-18T09:26:08;15.80;;;6.85;;
25972;SDS011;13765;51.166;4.466;2022-12-18T09:28:34;15.13;;;5.53;;
25972;SDS011;13765;51.166;4.466;2022-12-18T09:31:07;12.43;;;6.75;;
25972;SDS011;13765;51.166;4.466;2022-12-18T09:33:36;25.65;;;7.53;;
25972;SDS011;13765;51.166;4.466;2022-12-18T09:36:06;11.48;;;6.25;;
25972;SDS011;13765;51.166;4.466;2022-12-18T09:38:36;11.63;;;6.68;;
25972;SDS011;13765;51.166;4.466;2022-12-18T09:41:06;7.05;;;4.75;;
25972;SDS011;13765;51.166;4.466;2022-12-18T09:43:45;11.80;;;5.75;;
25972;SDS011;13765;51.166;4.466;2022-12-18T09:46:23;16.75;;;6.65;;
25972;SDS011;13765;51.166;4.466;2022-12-18T09:48:55;8.52;;;5.45;;
25972;SDS011;13765;51.166;4.466;2022-12-18T09:51:30;12.75;;;5.18;;
25972;SDS011;13765;51.166;4.466;2022-12-18T09:54:12;17.17;;;6.95;;
25972;SDS011;13765;51.166;4.466;2022-12-18T09:56:47;15.20;;;6.65;;
25972;SDS011;13765;51.166;4.466;2022-12-18T09:59:24;18.27;;;6.80;;
25972;SDS011;13765;51.166;4.466;2022-12-18T10:01:58;17.30;;;6.72;;
25972;SDS011;13765;51.166;4.466;2022-12-18T10:04:24;11.50;;;6.05;;
25972;SDS011;13765;51.166;4.466;2022-12-18T10:06:55;18.73;;;9.00;;
25972;SDS011;13765;51.166;4.466;2022-12-18T10:09:37;14.05;;;6.47;;
25972;SDS011;13765;51.166;4.466;2022-12-18T10:12:51;19.27;;;5.28;;
25972;SDS011;13765;51.166;4.466;2022-12-18T10:18:01;18.67;;;6.15;;
25972;SDS011;13765;51.166;4.466;2022-12-18T10:23:12;23.08;;;8.52;;
25972;SDS011;13765;51.166;4.466;2022-12-18T10:25:55;21.00;;;6.85;;
25972;SDS011;13765;51.166;4.466;2022-12-18T10:28:29;12.43;;;5.57;;
25972;SDS011;13765;51.166;4.466;2022-12-18T10:30:59;15.05;;;5.38;;
25972;SDS011;13765;51.166;4.466;2022-12-18T10:33:28;14.75;;;6.60;;
25972;SDS011;13765;51.166;4.466;2022-12-18T10:35:55;24.52;;;8.52;;
25972;SDS011;13765;51.166;4.466;2022-12-18T10:38:24;12.88;;;6.55;;
25972;SDS011;13765;51.166;4.466;2022-12-18T10:40:56;14.70;;;6.35;;
25972;SDS011;13765;51.166;4.466;2022-12-18T10:43:25;17.15;;;8.10;;
25972;SDS011;13765;51.166;4.466;2022-12-18T10:46:12;17.42;;;6.80;;
25972;SDS011;13765;51.166;4.466;2022-12-18T10:53:54;22.30;;;9.00;;
25972;SDS011;13765;51.166;4.466;2022-12-18T10:56:31;18.02;;;6.90;;
25972;SDS011;13765;51.166;4.466;2022-12-18T10:59:03;20.08;;;7.70;;
25972;SDS011;13765;51.166;4.466;2022-12-18T11:01:52;9.20;;;5.13;;
25972;SDS011;13765;51.166;4.466;2022-12-18T11:04:29;12.30;;;5.88;;
25972;SDS011;13765;51.166;4.466;2022-12-18T11:09:27;12.32;;;6.72;;
25972;SDS011;13765;51.166;4.466;2022-12-18T11:11:55;18.90;;;6.40;;
25972;SDS011;13765;51.166;4.466;2022-12-18T11:16:56;19.42;;;7.60;;
25972;SDS011;13765;51.166;4.466;2022-12-18T11:21:49;21.10;;;7.13;;
25972;SDS011;13765;51.166;4.466;2022-12-18T11:26:58;16.63;;;6.55;;
25972;SDS011;13765;51.166;4.466;2022-12-18T11:34:58;13.65;;;6.20;;
25972;SDS011;13765;51.166;4.466;2022-12-18T11:37:41;16.95;;;7.70;;
25972;SDS011;13765;51.166;4.466;2022-12-18T11:40:19;12.77;;;7.13;;
25972;SDS011;13765;51.166;4.466;2022-12-18T11:45:53;15.27;;;7.35;;
25972;SDS011;13765;51.166;4.466;2022-12-18T11:48:43;16.75;;;6.63;;
25972;SDS011;13765;51.166;4.466;2022-12-18T11:51:26;14.68;;;7.43;;
25972;SDS011;13765;51.166;4.466;2022-12-18T11:53:59;21.05;;;9.57;;
25972;SDS011;13765;51.166;4.466;2022-12-18T11:56:31;15.80;;;6.75;;
25972;SDS011;13765;51.166;4.466;2022-12-18T12:07:13;20.10;;;7.53;;
25972;SDS011;13765;51.166;4.466;2022-12-18T12:10:05;16.67;;;6.82;;
25972;SDS011;13765;51.166;4.466;2022-12-18T12:15:38;17.65;;;6.63;;
25972;SDS011;13765;51.166;4.466;2022-12-18T12:18:20;16.83;;;7.40;;
25972;SDS011;13765;51.166;4.466;2022-12-18T12:26:42;21.08;;;8.52;;
25972;SDS011;13765;51.166;4.466;2022-12-18T12:37:30;19.15;;;8.40;;
25972;SDS011;13765;51.166;4.466;2022-12-18T12:40:19;16.98;;;7.93;;
25972;SDS011;13765;51.166;4.466;2022-12-18T12:43:04;18.55;;;7.25;;
25972;SDS011;13765;51.166;4.466;2022-12-18T12:46:00;22.42;;;7.07;;
25972;SDS011;13765;51.166;4.466;2022-12-18T12:48:43;16.90;;;6.30;;
25972;SDS011;13765;51.166;4.466;2022-12-18T12:51:28;19.88;;;7.65;;
25972;SDS011;13765;51.166;4.466;2022-12-18T12:53:58;23.13;;;7.72;;
25972;SDS011;13765;51.166;4.466;2022-12-18T12:56:27;17.80;;;8.05;;
25972;SDS011;13765;51.166;4.466;2022-12-18T13:04:34;20.38;;;8.48;;
25972;SDS011;13765;51.166;4.466;2022-12-18T13:20:37;21.65;;;8.80;;
25972;SDS011;13765;51.166;4.466;2022-12-18T13:26:28;16.65;;;6.88;;
25972;SDS011;13765;51.166;4.466;2022-12-18T13:36:34;17.73;;;7.40;;
25972;SDS011;13765;51.166;4.466;2022-12-18T13:39:10;19.50;;;8.70;;
25972;SDS011;13765;51.166;4.466;2022-12-18T13:41:52;27.05;;;7.75;;
25972;SDS011;13765;51.166;4.466;2022-12-18T13:44:58;20.08;;;8.13;;
25972;SDS011;13765;51.166;4.466;2022-12-18T13:47:25;13.20;;;6.95;;
25972;SDS011;13765;51.166;4.466;2022-12-18T13:49:59;24.13;;;7.82;;
25972;SDS011;13765;51.166;4.466;2022-12-18T13:52:33;14.13;;;7.53;;
25972;SDS011;13765;51.166;4.466;2022-12-18T13:55:06;20.17;;;8.30;;
25972;SDS011;13765;51.166;4.466;2022-12-18T13:57:40;25.05;;;7.85;;
25972;SDS011;13765;51.166;4.466;2022-12-18T14:00:30;24.52;;;8.32;;
25972;SDS011;13765;51.166;4.466;2022-12-18T14:02:57;17.98;;;9.38;;
25972;SDS011;13765;51.166;4.466;2022-12-18T14:05:24;20.38;;;8.57;;
25972;SDS011;13765;51.166;4.466;2022-12-18T14:08:01;18.33;;;8.07;;
25972;SDS011;13765;51.166;4.466;2022-12-18T14:10:38;21.48;;;9.25;;
25972;SDS011;13765;51.166;4.466;2022-12-18T14:13:18;20.73;;;9.20;;
25972;SDS011;13765;51.166;4.466;2022-12-18T14:15:54;23.50;;;9.88;;
25972;SDS011;13765;51.166;4.466;2022-12-18T14:18:48;21.33;;;10.38;;
25972;SDS011;13765;51.166;4.466;2022-12-18T14:21:18;16.83;;;8.70;;
25972;SDS011;13765;51.166;4.466;2022-12-18T14:26:34;21.35;;;8.52;;
25972;SDS011;13765;51.166;4.466;2022-12-18T14:29:44;23.25;;;9.02;;
25972;SDS011;13765;51.166;4.466;2022-12-18T14:37:05;17.52;;;8.07;;
25972;SDS011;13765;51.166;4.466;2022-12-18T14:39:35;19.33;;;7.82;;
25972;SDS011;13765;51.166;4.466;2022-12-18T14:42:00;30.15;;;8.68;;
25972;SDS011;13765;51.166;4.466;2022-12-18T14:44:26;23.20;;;9.95;;
25972;SDS011;13765;51.166;4.466;2022-12-18T14:46:58;25.35;;;10.18;;
25972;SDS011;13765;51.166;4.466;2022-12-18T14:49:30;22.67;;;9.13;;
25972;SDS011;13765;51.166;4.466;2022-12-18T14:52:06;24.13;;;9.75;;
25972;SDS011;13765;51.166;4.466;2022-12-18T14:54:56;23.10;;;9.73;;
25972;SDS011;13765;51.166;4.466;2022-12-18T14:57:25;17.20;;;6.93;;
25972;SDS011;13765;51.166;4.466;2022-12-18T15:00:04;23.30;;;8.77;;
25972;SDS011;13765;51.166;4.466;2022-12-18T15:02:34;32.45;;;10.82;;
25972;SDS011;13765;51.166;4.466;2022-12-18T15:05:02;19.23;;;8.70;;
25972;SDS011;13765;51.166;4.466;2022-12-18T15:07:43;28.73;;;9.68;;
25972;SDS011;13765;51.166;4.466;2022-12-18T15:10:31;21.55;;;9.00;;
25972;SDS011;13765;51.166;4.466;2022-12-18T15:20:41;20.77;;;8.90;;
25972;SDS011;13765;51.166;4.466;2022-12-18T15:23:20;21.60;;;10.25;;
25972;SDS011;13765;51.166;4.466;2022-12-18T15:26:05;26.75;;;12.02;;
25972;SDS011;13765;51.166;4.466;2022-12-18T15:38:50;21.73;;;9.82;;
25972;SDS011;13765;51.166;4.466;2022-12-18T15:41:19;18.15;;;9.15;;
25972;SDS011;13765;51.166;4.466;2022-12-18T15:43:52;28.90;;;11.50;;
25972;SDS011;13765;51.166;4.466;2022-12-18T15:48:46;27.85;;;12.27;;
25972;SDS011;13765;51.166;4.466;2022-12-18T15:53:50;24.63;;;10.95;;
25972;SDS011;13765;51.166;4.466;2022-12-18T15:56:19;32.92;;;12.93;;
25972;SDS011;13765;51.166;4.466;2022-12-18T15:59:13;31.33;;;12.57;;
25972;SDS011;13765;51.166;4.466;2022-12-18T16:01:41;26.65;;;10.02;;
25972;SDS011;13765;51.166;4.466;2022-12-18T16:04:13;28.05;;;10.10;;
25972;SDS011;13765;51.166;4.466;2022-12-18T16:06:40;29.23;;;9.50;;
25972;SDS011;13765;51.166;4.466;2022-12-18T16:09:08;29.75;;;9.80;;
25972;SDS011;13765;51.166;4.466;2022-12-18T16:11:36;29.13;;;10.88;;
25972;SDS011;13765;51.166;4.466;2022-12-18T16:16:30;26.38;;;11.65;;
25972;SDS011;13765;51.166;4.466;2022-12-18T16:18:56;30.67;;;11.18;;
25972;SDS011;13765;51.166;4.466;2022-12-18T16:21:22;30.33;;;11.02;;
25972;SDS011;13765;51.166;4.466;2022-12-18T16:23:50;26.15;;;9.18;;
25972;SDS011;13765;51.166;4.466;2022-12-18T16:26:18;26.05;;;10.30;;
25972;SDS011;13765;51.166;4.466;2022-12-18T16:28:48;28.67;;;9.63;;
25972;SDS011;13765;51.166;4.466;2022-12-18T16:31:14;26.40;;;11.27;;
25972;SDS011;13765;51.166;4.466;2022-12-18T16:33:42;27.52;;;10.18;;
25972;SDS011;13765;51.166;4.466;2022-12-18T16:36:09;28.25;;;12.70;;
25972;SDS011;13765;51.166;4.466;2022-12-18T16:38:35;23.65;;;10.32;;
25972;SDS011;13765;51.166;4.466;2022-12-18T16:41:01;28.95;;;9.45;;
25972;SDS011;13765;51.166;4.466;2022-12-18T16:43:45;25.65;;;10.65;;
25972;SDS011;13765;51.166;4.466;2022-12-18T16:46:11;28.50;;;9.93;;
25972;SDS011;13765;51.166;4.466;2022-12-18T16:48:37;22.10;;;10.40;;
25972;SDS011;13765;51.166;4.466;2022-12-18T16:51:05;22.95;;;9.82;;
25972;SDS011;13765;51.166;4.466;2022-12-18T16:53:34;30.10;;;11.65;;
25972;SDS011;13765;51.166;4.466;2022-12-18T16:56:02;30.02;;;11.45;;
25972;SDS011;13765;51.166;4.466;2022-12-18T16:58:28;34.85;;;11.05;;
25972;SDS011;13765;51.166;4.466;2022-12-18T17:00:57;22.63;;;8.77;;
25972;SDS011;13765;51.166;4.466;2022-12-18T17:03:23;27.00;;;10.90;;
25972;SDS011;13765;51.166;4.466;2022-12-18T17:05:52;30.27;;;8.73;;
25972;SDS011;13765;51.166;4.466;2022-12-18T17:08:20;26.75;;;9.75;;
25972;SDS011;13765;51.166;4.466;2022-12-18T17:10:49;26.70;;;12.02;;
25972;SDS011;13765;51.166;4.466;2022-12-18T17:13:15;37.83;;;11.77;;
25972;SDS011;13765;51.166;4.466;2022-12-18T17:15:41;22.92;;;10.68;;
25972;SDS011;13765;51.166;4.466;2022-12-18T17:18:07;28.02;;;10.10;;
25972;SDS011;13765;51.166;4.466;2022-12-18T17:20:32;19.48;;;8.80;;
25972;SDS011;13765;51.166;4.466;2022-12-18T17:22:58;30.20;;;12.43;;
25972;SDS011;13765;51.166;4.466;2022-12-18T17:25:25;26.30;;;9.27;;
25972;SDS011;13765;51.166;4.466;2022-12-18T17:27:52;22.83;;;8.57;;
25972;SDS011;13765;51.166;4.466;2022-12-18T17:30:20;27.92;;;10.82;;